createdAt,value
2018-10-06T00:00:02.190Z,8
2018-10-06T00:00:14.368Z,8
2018-10-06T00:00:26.710Z,8
2018-10-06T00:00:38.888Z,8
2018-10-06T00:00:51.084Z,8
2018-10-06T00:01:03.267Z,8
2018-10-06T00:01:15.416Z,8
2018-10-06T00:01:27.647Z,8
2018-10-06T00:01:39.814Z,8
2018-10-06T00:01:51.978Z,8
2018-10-06T00:02:04.162Z,8
2018-10-06T00:02:16.345Z,8
2018-10-06T00:02:28.554Z,8
2018-10-06T00:02:40.726Z,8
2018-10-06T00:02:52.910Z,8
2018-10-06T00:03:05.111Z,8
2018-10-06T00:03:17.297Z,8
2018-10-06T00:03:29.546Z,8
2018-10-06T00:03:41.702Z,8
2018-10-06T00:03:54.272Z,8
2018-10-06T00:04:06.463Z,8.23
2018-10-06T00:04:18.627Z,8.23
2018-10-06T00:04:30.781Z,8.23
2018-10-06T00:04:42.951Z,8.23
2018-10-06T00:04:55.239Z,8.23
2018-10-06T00:05:07.429Z,8.23
2018-10-06T00:05:19.583Z,8.23
2018-10-06T00:05:31.772Z,8.23
2018-10-06T00:05:43.985Z,8.23
2018-10-06T00:05:56.162Z,8.23
2018-10-06T00:06:08.324Z,8.23
2018-10-06T00:06:20.491Z,8.23
2018-10-06T00:06:32.655Z,8.23
2018-10-06T00:06:44.851Z,8.23
2018-10-06T00:06:56.993Z,8.23
2018-10-06T00:07:09.196Z,8.23
2018-10-06T00:07:21.339Z,8.23
2018-10-06T00:07:33.480Z,8.23
2018-10-06T00:07:45.683Z,8.23
2018-10-06T00:07:57.873Z,8.23
2018-10-06T00:08:10.070Z,8.23
2018-10-06T00:08:22.236Z,8.23
2018-10-06T00:08:34.457Z,8.23
2018-10-06T00:08:46.606Z,8.23
2018-10-06T00:08:58.845Z,8.23
2018-10-06T00:09:10.987Z,8.23
2018-10-06T00:09:23.155Z,8.23
2018-10-06T00:09:35.488Z,8.23
2018-10-06T00:09:47.651Z,8.23
2018-10-06T00:09:59.812Z,8.23
2018-10-06T00:10:11.970Z,8.23
2018-10-06T00:10:24.144Z,8.23
2018-10-06T00:10:36.338Z,8.23
2018-10-06T00:10:48.489Z,8.23
2018-10-06T00:11:00.667Z,8.23
2018-10-06T00:11:12.838Z,8.23
2018-10-06T00:11:24.971Z,8.23
2018-10-06T00:11:37.149Z,8.23
2018-10-06T00:11:49.323Z,8.23
2018-10-06T00:12:01.504Z,8.23
2018-10-06T00:12:13.678Z,8.23
2018-10-06T00:12:25.843Z,8.23
2018-10-06T00:12:38.114Z,8.23
2018-10-06T00:12:50.302Z,8.23
2018-10-06T00:13:02.486Z,8.23
2018-10-06T00:13:14.662Z,8.23
2018-10-06T00:13:26.817Z,8.23
2018-10-06T00:13:39.028Z,8.23
2018-10-06T00:13:51.183Z,8.23
2018-10-06T00:14:03.350Z,7.13
2018-10-06T00:14:15.503Z,7.13
2018-10-06T00:14:27.663Z,7.13
2018-10-06T00:14:40.013Z,7.13
2018-10-06T00:14:52.172Z,7.13
2018-10-06T00:15:04.324Z,7.13
2018-10-06T00:15:16.490Z,7.13
2018-10-06T00:15:28.689Z,7.13
2018-10-06T00:15:40.856Z,7.13
2018-10-06T00:15:53.052Z,7.13
2018-10-06T00:16:05.233Z,7.13
2018-10-06T00:16:17.490Z,7.13
2018-10-06T00:16:29.649Z,7.13
2018-10-06T00:16:41.811Z,7.13
2018-10-06T00:16:53.955Z,7.13
2018-10-06T00:17:06.713Z,7.13
2018-10-06T00:17:18.870Z,7.13
2018-10-06T00:17:31.035Z,7.13
2018-10-06T00:17:43.181Z,7.13
2018-10-06T00:17:55.376Z,7.13
2018-10-06T00:18:07.543Z,7.13
2018-10-06T00:18:19.703Z,7.13
2018-10-06T00:18:31.855Z,7.13
2018-10-06T00:18:44.003Z,7.13
2018-10-06T00:18:56.156Z,7.13
2018-10-06T00:19:08.300Z,7.13
2018-10-06T00:19:20.477Z,7.13
2018-10-06T00:19:32.647Z,7.13
2018-10-06T00:19:44.840Z,7.13
2018-10-06T00:19:57.134Z,7.13
2018-10-06T00:20:09.327Z,7.13
2018-10-06T00:20:21.493Z,7.13
2018-10-06T00:20:33.668Z,7.13
2018-10-06T00:20:45.842Z,7.13
2018-10-06T00:20:58.012Z,7.13
2018-10-06T00:21:10.204Z,7.13
2018-10-06T00:21:22.379Z,7.13
2018-10-06T00:21:34.701Z,7.13
2018-10-06T00:21:46.866Z,7.13
2018-10-06T00:21:59.388Z,7.13
2018-10-06T00:22:11.565Z,7.13
2018-10-06T00:22:23.743Z,7.13
2018-10-06T00:22:35.886Z,7.13
2018-10-06T00:22:48.048Z,7.13
2018-10-06T00:23:00.216Z,7.13
2018-10-06T00:23:12.380Z,7.13
2018-10-06T00:23:24.546Z,7.13
2018-10-06T00:23:36.721Z,7.13
2018-10-06T00:23:48.910Z,7.13
2018-10-06T00:24:01.327Z,7.45
2018-10-06T00:24:13.508Z,7.45
2018-10-06T00:24:25.674Z,7.45
2018-10-06T00:24:37.815Z,7.45
2018-10-06T00:24:49.970Z,7.45
2018-10-06T00:25:02.146Z,7.45
2018-10-06T00:25:14.291Z,7.45
2018-10-06T00:25:26.453Z,7.45
2018-10-06T00:25:38.608Z,7.45
2018-10-06T00:25:50.770Z,7.45
2018-10-06T00:26:02.917Z,7.45
2018-10-06T00:26:15.091Z,7.45
2018-10-06T00:26:27.261Z,7.45
2018-10-06T00:26:39.416Z,7.45
2018-10-06T00:26:51.571Z,7.45
2018-10-06T00:27:03.762Z,7.45
2018-10-06T00:27:15.967Z,7.45
2018-10-06T00:27:28.125Z,7.45
2018-10-06T00:27:40.283Z,7.45
2018-10-06T00:27:52.447Z,7.45
2018-10-06T00:28:04.595Z,7.45
2018-10-06T00:28:16.748Z,7.45
2018-10-06T00:28:28.909Z,7.45
2018-10-06T00:28:41.057Z,7.45
2018-10-06T00:28:53.208Z,7.45
2018-10-06T00:29:05.415Z,7.45
2018-10-06T00:29:17.610Z,7.45
2018-10-06T00:29:29.801Z,7.45
2018-10-06T00:29:41.952Z,7.45
2018-10-06T00:29:54.100Z,7.45
2018-10-06T00:30:06.250Z,7.45
2018-10-06T00:30:18.453Z,7.45
2018-10-06T00:30:31.392Z,7.45
2018-10-06T00:30:43.631Z,7.45
2018-10-06T00:30:55.804Z,7.45
2018-10-06T00:31:07.973Z,7.45
2018-10-06T00:31:20.119Z,7.45
2018-10-06T00:31:32.280Z,7.45
2018-10-06T00:31:44.485Z,7.45
2018-10-06T00:31:56.683Z,7.45
2018-10-06T00:32:08.919Z,7.45
2018-10-06T00:32:21.140Z,7.45
2018-10-06T00:32:33.691Z,7.45
2018-10-06T00:32:46.054Z,7.45
2018-10-06T00:32:58.423Z,7.45
2018-10-06T00:33:10.573Z,7.45
2018-10-06T00:33:22.803Z,7.45
2018-10-06T00:33:34.951Z,7.45
2018-10-06T00:33:47.168Z,7.45
2018-10-06T00:33:59.373Z,7.45
2018-10-06T00:34:11.518Z,7.45
2018-10-06T00:34:23.706Z,7.45
2018-10-06T00:34:35.851Z,7.45
2018-10-06T00:34:48.009Z,7.45
2018-10-06T00:35:00.178Z,7.45
2018-10-06T00:35:12.341Z,7.45
2018-10-06T00:35:24.577Z,7.45
2018-10-06T00:35:37.084Z,7.45
2018-10-06T00:35:49.248Z,7.45
2018-10-06T00:36:01.410Z,7.45
2018-10-06T00:36:13.577Z,7.45
2018-10-06T00:36:25.727Z,7.45
2018-10-06T00:36:37.879Z,7.45
2018-10-06T00:36:50.224Z,7.45
2018-10-06T00:37:02.390Z,7.45
2018-10-06T00:37:14.551Z,7.45
2018-10-06T00:37:26.785Z,7.45
2018-10-06T00:37:38.959Z,7.45
2018-10-06T00:37:51.260Z,7.45
2018-10-06T00:38:03.424Z,7.45
2018-10-06T00:38:15.586Z,7.45
2018-10-06T00:38:27.734Z,7.45
2018-10-06T00:38:39.901Z,7.45
2018-10-06T00:38:52.070Z,7.45
2018-10-06T00:39:04.241Z,7.45
2018-10-06T00:39:16.395Z,7.45
2018-10-06T00:39:28.619Z,7.45
2018-10-06T00:39:40.872Z,7.45
2018-10-06T00:39:53.187Z,7.45
2018-10-06T00:40:05.412Z,7.45
2018-10-06T00:40:17.596Z,7.45
2018-10-06T00:40:29.800Z,7.45
2018-10-06T00:40:41.959Z,7.45
2018-10-06T00:40:54.112Z,7.45
2018-10-06T00:41:06.263Z,7.45
2018-10-06T00:41:18.429Z,7.45
2018-10-06T00:41:30.576Z,7.45
2018-10-06T00:41:42.736Z,7.45
2018-10-06T00:41:54.908Z,7.45
2018-10-06T00:42:07.066Z,7.45
2018-10-06T00:42:19.214Z,7.45
2018-10-06T00:42:31.400Z,7.45
2018-10-06T00:42:43.567Z,7.45
2018-10-06T00:42:55.806Z,7.45
2018-10-06T00:43:08.002Z,7.45
2018-10-06T00:43:20.166Z,7.45
2018-10-06T00:43:32.316Z,7.45
2018-10-06T00:43:44.513Z,7.45
2018-10-06T00:43:56.694Z,7.45
2018-10-06T00:44:09.650Z,7.17
2018-10-06T00:44:21.801Z,7.17
2018-10-06T00:44:34.019Z,7.17
2018-10-06T00:44:46.179Z,7.17
2018-10-06T00:44:58.348Z,7.17
2018-10-06T00:45:10.661Z,7.17
2018-10-06T00:45:22.810Z,7.17
2018-10-06T00:45:34.961Z,7.17
2018-10-06T00:45:47.142Z,7.17
2018-10-06T00:45:59.319Z,7.17
2018-10-06T00:46:11.471Z,7.17
2018-10-06T00:46:23.620Z,7.17
2018-10-06T00:46:35.799Z,7.17
2018-10-06T00:46:47.950Z,7.17
2018-10-06T00:47:00.116Z,7.17
2018-10-06T00:47:12.895Z,7.17
2018-10-06T00:47:26.548Z,7.17
2018-10-06T00:47:38.731Z,7.17
2018-10-06T00:47:50.901Z,7.17
2018-10-06T00:48:03.048Z,7.17
2018-10-06T00:48:15.233Z,7.17
2018-10-06T00:48:27.397Z,7.17
2018-10-06T00:48:39.581Z,7.17
2018-10-06T00:48:51.730Z,7.17
2018-10-06T00:49:03.915Z,7.17
2018-10-06T00:49:16.072Z,7.17
2018-10-06T00:49:28.320Z,7.17
2018-10-06T00:49:40.480Z,7.17
2018-10-06T00:49:52.631Z,7.17
2018-10-06T00:50:05.094Z,7.17
2018-10-06T00:50:17.241Z,7.17
2018-10-06T00:50:29.408Z,7.17
2018-10-06T00:50:41.572Z,7.17
2018-10-06T00:50:53.733Z,7.17
2018-10-06T00:51:05.902Z,7.17
2018-10-06T00:51:18.054Z,7.17
2018-10-06T00:51:30.211Z,7.17
2018-10-06T00:51:42.386Z,7.17
2018-10-06T00:51:54.546Z,7.17
2018-10-06T00:52:06.705Z,7.17
2018-10-06T00:52:18.860Z,7.17
2018-10-06T00:52:31.010Z,7.17
2018-10-06T00:52:43.163Z,7.17
2018-10-06T00:52:55.312Z,7.17
2018-10-06T00:53:07.474Z,7.17
2018-10-06T00:53:19.781Z,7.17
2018-10-06T00:53:31.936Z,7.17
2018-10-06T00:53:44.094Z,7.17
2018-10-06T00:53:56.251Z,7.17
2018-10-06T00:54:08.413Z,7.69
2018-10-06T00:54:20.562Z,7.69
2018-10-06T00:54:32.721Z,7.69
2018-10-06T00:54:44.877Z,7.69
2018-10-06T00:54:57.045Z,7.69
2018-10-06T00:55:09.199Z,7.69
2018-10-06T00:55:21.361Z,7.69
2018-10-06T00:55:33.532Z,7.69
2018-10-06T00:55:45.705Z,7.69
2018-10-06T00:55:58.512Z,7.69
2018-10-06T00:56:10.682Z,7.69
2018-10-06T00:56:22.974Z,7.69
2018-10-06T00:56:35.228Z,7.69
2018-10-06T00:56:47.392Z,7.69
2018-10-06T00:56:59.735Z,7.69
2018-10-06T00:57:11.897Z,7.69
2018-10-06T00:57:24.050Z,7.69
2018-10-06T00:57:36.330Z,7.69
2018-10-06T00:57:48.497Z,7.69
2018-10-06T00:58:00.664Z,7.69
2018-10-06T00:58:12.812Z,7.69
2018-10-06T00:58:25.015Z,7.69
2018-10-06T00:58:37.208Z,7.69
2018-10-06T00:58:49.363Z,7.69
2018-10-06T00:59:01.520Z,7.69
2018-10-06T00:59:13.681Z,7.69
2018-10-06T00:59:25.852Z,7.69
2018-10-06T00:59:38.014Z,7.69
2018-10-06T00:59:50.172Z,7.69
2018-10-06T01:00:02.413Z,7.69
2018-10-06T01:00:14.591Z,7.69
2018-10-06T01:00:26.912Z,7.69
2018-10-06T01:00:39.087Z,7.69
2018-10-06T01:00:51.261Z,7.69
2018-10-06T01:01:03.441Z,7.69
2018-10-06T01:01:15.658Z,7.69
2018-10-06T01:01:27.998Z,7.69
2018-10-06T01:01:40.196Z,7.69
2018-10-06T01:01:52.365Z,7.69
2018-10-06T01:02:04.539Z,7.69
2018-10-06T01:02:16.778Z,7.69
2018-10-06T01:02:28.961Z,7.69
2018-10-06T01:02:41.134Z,7.69
2018-10-06T01:02:53.321Z,7.69
2018-10-06T01:03:05.546Z,7.69
2018-10-06T01:03:17.723Z,7.69
2018-10-06T01:03:29.895Z,7.69
2018-10-06T01:03:42.064Z,7.69
2018-10-06T01:03:54.307Z,7.69
2018-10-06T01:04:06.470Z,7.92
2018-10-06T01:04:18.635Z,7.92
2018-10-06T01:04:30.809Z,7.92
2018-10-06T01:04:42.980Z,7.92
2018-10-06T01:04:55.316Z,7.92
2018-10-06T01:05:07.490Z,7.92
2018-10-06T01:05:19.704Z,7.92
2018-10-06T01:05:31.876Z,7.92
2018-10-06T01:05:44.038Z,7.92
2018-10-06T01:05:56.188Z,7.92
2018-10-06T01:06:08.351Z,7.92
2018-10-06T01:06:20.548Z,7.92
2018-10-06T01:06:32.758Z,7.92
2018-10-06T01:06:44.959Z,7.92
2018-10-06T01:06:57.197Z,7.92
2018-10-06T01:07:09.375Z,7.92
2018-10-06T01:07:21.551Z,7.92
2018-10-06T01:07:33.729Z,7.92
2018-10-06T01:07:45.949Z,7.92
2018-10-06T01:07:58.189Z,7.92
2018-10-06T01:08:10.391Z,7.92
2018-10-06T01:08:22.584Z,7.92
2018-10-06T01:08:34.740Z,7.92
2018-10-06T01:08:46.888Z,7.92
2018-10-06T01:08:59.052Z,7.92
2018-10-06T01:09:11.226Z,7.92
2018-10-06T01:09:23.415Z,7.92
2018-10-06T01:09:35.560Z,7.92
2018-10-06T01:09:47.854Z,7.92
2018-10-06T01:10:00.021Z,7.92
2018-10-06T01:10:12.188Z,7.92
2018-10-06T01:10:24.362Z,7.92
2018-10-06T01:10:36.578Z,7.92
2018-10-06T01:10:48.740Z,7.92
2018-10-06T01:11:00.958Z,7.92
2018-10-06T01:11:13.129Z,7.92
2018-10-06T01:11:25.297Z,7.92
2018-10-06T01:11:37.457Z,7.92
2018-10-06T01:11:49.611Z,7.92
2018-10-06T01:12:01.771Z,7.92
2018-10-06T01:12:13.936Z,7.92
2018-10-06T01:12:26.118Z,7.92
2018-10-06T01:12:38.803Z,7.92
2018-10-06T01:12:50.971Z,7.92
2018-10-06T01:13:03.140Z,7.92
2018-10-06T01:13:15.311Z,7.92
2018-10-06T01:13:27.465Z,7.92
2018-10-06T01:13:39.707Z,7.92
2018-10-06T01:13:51.862Z,7.92
2018-10-06T01:14:04.023Z,7.85
2018-10-06T01:14:16.171Z,7.85
2018-10-06T01:14:28.337Z,7.85
2018-10-06T01:14:40.593Z,7.85
2018-10-06T01:14:52.765Z,7.85
2018-10-06T01:15:04.951Z,7.85
2018-10-06T01:15:17.121Z,7.85
2018-10-06T01:15:29.309Z,7.85
2018-10-06T01:15:41.468Z,7.85
2018-10-06T01:15:53.673Z,7.85
2018-10-06T01:16:05.841Z,7.85
2018-10-06T01:16:17.993Z,7.85
2018-10-06T01:16:30.158Z,7.85
2018-10-06T01:16:42.340Z,7.85
2018-10-06T01:16:54.497Z,7.85
2018-10-06T01:17:06.830Z,7.85
2018-10-06T01:17:18.978Z,7.85
2018-10-06T01:17:31.142Z,7.85
2018-10-06T01:17:43.294Z,7.85
2018-10-06T01:17:55.462Z,7.85
2018-10-06T01:18:07.616Z,7.85
2018-10-06T01:18:19.823Z,7.85
2018-10-06T01:18:31.972Z,7.85
2018-10-06T01:18:44.405Z,7.85
2018-10-06T01:18:56.563Z,7.85
2018-10-06T01:19:08.732Z,7.85
2018-10-06T01:19:20.896Z,7.85
2018-10-06T01:19:33.073Z,7.85
2018-10-06T01:19:45.261Z,7.85
2018-10-06T01:19:57.537Z,7.85
2018-10-06T01:20:09.717Z,7.85
2018-10-06T01:20:21.866Z,7.85
2018-10-06T01:20:34.038Z,7.85
2018-10-06T01:20:46.190Z,7.85
2018-10-06T01:20:58.347Z,7.85
2018-10-06T01:21:10.512Z,7.85
2018-10-06T01:21:22.703Z,7.85
2018-10-06T01:21:35.053Z,7.85
2018-10-06T01:21:47.219Z,7.85
2018-10-06T01:21:59.425Z,7.85
2018-10-06T01:22:11.593Z,7.85
2018-10-06T01:22:23.788Z,7.85
2018-10-06T01:22:35.964Z,7.85
2018-10-06T01:22:48.129Z,7.85
2018-10-06T01:23:00.313Z,7.85
2018-10-06T01:23:12.485Z,7.85
2018-10-06T01:23:24.648Z,7.85
2018-10-06T01:23:36.830Z,7.85
2018-10-06T01:23:49.006Z,7.85
2018-10-06T01:24:01.418Z,7.85
2018-10-06T01:24:13.593Z,8.45
2018-10-06T01:24:25.752Z,8.45
2018-10-06T01:24:37.919Z,8.45
2018-10-06T01:24:50.078Z,8.45
2018-10-06T01:25:02.239Z,8.45
2018-10-06T01:25:14.400Z,8.45
2018-10-06T01:25:26.572Z,8.45
2018-10-06T01:25:38.748Z,8.45
2018-10-06T01:25:50.925Z,8.45
2018-10-06T01:26:03.075Z,8.45
2018-10-06T01:26:15.236Z,8.45
2018-10-06T01:26:27.392Z,8.45
2018-10-06T01:26:39.540Z,8.45
2018-10-06T01:26:51.718Z,8.45
2018-10-06T01:27:03.894Z,8.45
2018-10-06T01:27:16.047Z,8.45
2018-10-06T01:27:28.221Z,8.45
2018-10-06T01:27:40.378Z,8.45
2018-10-06T01:27:52.546Z,8.45
2018-10-06T01:28:04.726Z,8.45
2018-10-06T01:28:16.902Z,8.45
2018-10-06T01:28:29.075Z,8.45
2018-10-06T01:28:41.238Z,8.45
2018-10-06T01:28:53.387Z,8.45
2018-10-06T01:29:05.583Z,8.45
2018-10-06T01:29:17.723Z,8.45
2018-10-06T01:29:29.931Z,8.45
2018-10-06T01:29:42.098Z,8.45
2018-10-06T01:29:54.367Z,8.45
2018-10-06T01:30:06.563Z,8.45
2018-10-06T01:30:18.718Z,8.45
2018-10-06T01:30:31.116Z,8.45
2018-10-06T01:30:43.280Z,8.45
2018-10-06T01:30:55.459Z,8.45
2018-10-06T01:31:07.633Z,8.45
2018-10-06T01:31:19.774Z,8.45
2018-10-06T01:31:31.948Z,8.45
2018-10-06T01:31:44.173Z,8.45
2018-10-06T01:31:56.375Z,8.45
2018-10-06T01:32:08.555Z,8.45
2018-10-06T01:32:20.721Z,8.45
2018-10-06T01:32:32.861Z,8.45
2018-10-06T01:32:46.408Z,8.45
2018-10-06T01:32:58.575Z,8.45
2018-10-06T01:33:10.727Z,8.45
2018-10-06T01:33:22.939Z,8.45
2018-10-06T01:33:35.098Z,8.45
2018-10-06T01:33:47.241Z,8.45
2018-10-06T01:33:59.420Z,8.45
2018-10-06T01:34:11.624Z,7.96
2018-10-06T01:34:23.798Z,7.96
2018-10-06T01:34:35.953Z,7.96
2018-10-06T01:34:48.131Z,7.96
2018-10-06T01:35:00.294Z,7.96
2018-10-06T01:35:12.483Z,7.96
2018-10-06T01:35:24.766Z,7.96
2018-10-06T01:35:37.101Z,7.96
2018-10-06T01:35:49.270Z,7.96
2018-10-06T01:36:01.435Z,7.96
2018-10-06T01:36:13.592Z,7.96
2018-10-06T01:36:25.819Z,7.96
2018-10-06T01:36:37.982Z,7.96
2018-10-06T01:36:50.235Z,7.96
2018-10-06T01:37:02.393Z,7.96
2018-10-06T01:37:14.565Z,7.96
2018-10-06T01:37:26.740Z,7.96
2018-10-06T01:37:38.910Z,7.96
2018-10-06T01:37:51.078Z,7.96
2018-10-06T01:38:03.271Z,7.96
2018-10-06T01:38:15.455Z,7.96
2018-10-06T01:38:27.604Z,7.96
2018-10-06T01:38:39.771Z,7.96
2018-10-06T01:38:51.936Z,7.96
2018-10-06T01:39:04.133Z,7.96
2018-10-06T01:39:16.285Z,7.96
2018-10-06T01:39:28.469Z,7.96
2018-10-06T01:39:40.859Z,7.96
2018-10-06T01:39:53.237Z,7.96
2018-10-06T01:40:05.401Z,7.96
2018-10-06T01:40:17.565Z,7.96
2018-10-06T01:40:29.876Z,7.96
2018-10-06T01:40:42.030Z,7.96
2018-10-06T01:40:54.203Z,7.96
2018-10-06T01:41:06.367Z,7.96
2018-10-06T01:41:18.540Z,7.96
2018-10-06T01:41:30.688Z,7.96
2018-10-06T01:41:42.894Z,7.96
2018-10-06T01:41:55.059Z,7.96
2018-10-06T01:42:07.230Z,7.96
2018-10-06T01:42:19.391Z,7.96
2018-10-06T01:42:31.567Z,7.96
2018-10-06T01:42:43.769Z,7.96
2018-10-06T01:42:56.163Z,7.96
2018-10-06T01:43:08.327Z,7.96
2018-10-06T01:43:20.478Z,7.96
2018-10-06T01:43:32.652Z,7.96
2018-10-06T01:43:44.795Z,7.96
2018-10-06T01:43:56.940Z,7.96
2018-10-06T01:44:09.166Z,7.85
2018-10-06T01:44:21.335Z,7.85
2018-10-06T01:44:33.477Z,7.85
2018-10-06T01:44:45.620Z,7.85
2018-10-06T01:44:57.838Z,7.85
2018-10-06T01:45:10.404Z,7.85
2018-10-06T01:45:22.584Z,7.85
2018-10-06T01:45:34.795Z,7.85
2018-10-06T01:45:46.944Z,7.85
2018-10-06T01:45:59.085Z,7.85
2018-10-06T01:46:11.238Z,7.85
2018-10-06T01:46:23.376Z,7.85
2018-10-06T01:46:35.529Z,7.85
2018-10-06T01:46:47.714Z,7.85
2018-10-06T01:46:59.950Z,7.85
2018-10-06T01:47:12.193Z,7.85
2018-10-06T01:47:24.447Z,7.85
2018-10-06T01:47:36.676Z,7.85
2018-10-06T01:47:48.917Z,7.85
2018-10-06T01:48:01.145Z,7.85
2018-10-06T01:48:13.327Z,7.85
2018-10-06T01:48:25.477Z,7.85
2018-10-06T01:48:37.618Z,7.85
2018-10-06T01:48:49.764Z,7.85
2018-10-06T01:49:01.915Z,7.85
2018-10-06T01:49:14.071Z,7.85
2018-10-06T01:49:26.397Z,7.85
2018-10-06T01:49:38.719Z,7.85
2018-10-06T01:49:51.546Z,7.85
2018-10-06T01:50:05.119Z,7.85
2018-10-06T01:50:17.513Z,7.85
2018-10-06T01:50:29.826Z,7.85
2018-10-06T01:50:41.985Z,7.85
2018-10-06T01:50:54.428Z,7.85
2018-10-06T01:51:07.571Z,7.85
2018-10-06T01:51:20.335Z,7.85
2018-10-06T01:51:32.509Z,7.85
2018-10-06T01:51:44.679Z,7.85
2018-10-06T01:51:56.869Z,7.85
2018-10-06T01:52:09.049Z,7.85
2018-10-06T01:52:21.217Z,7.85
2018-10-06T01:52:33.370Z,7.85
2018-10-06T01:52:45.544Z,7.85
2018-10-06T01:52:57.724Z,7.85
2018-10-06T01:53:09.902Z,7.85
2018-10-06T01:53:22.244Z,7.85
2018-10-06T01:53:34.427Z,7.85
2018-10-06T01:53:46.597Z,7.85
2018-10-06T01:53:58.763Z,7.85
2018-10-06T01:54:10.914Z,7.9
2018-10-06T01:54:23.122Z,7.9
2018-10-06T01:54:35.489Z,7.9
2018-10-06T01:54:47.654Z,7.9
2018-10-06T01:54:59.803Z,7.9
2018-10-06T01:55:11.974Z,7.9
2018-10-06T01:55:24.121Z,7.9
2018-10-06T01:55:36.284Z,7.9
2018-10-06T01:55:48.435Z,7.9
2018-10-06T01:56:00.661Z,7.9
2018-10-06T01:56:12.824Z,7.9
2018-10-06T01:56:24.997Z,7.9
2018-10-06T01:56:37.181Z,7.9
2018-10-06T01:56:49.338Z,7.9
2018-10-06T01:57:01.492Z,7.9
2018-10-06T01:57:13.637Z,7.9
2018-10-06T01:57:25.843Z,7.9
2018-10-06T01:57:38.021Z,7.9
2018-10-06T01:57:50.177Z,7.9
2018-10-06T01:58:02.321Z,7.9
2018-10-06T01:58:14.479Z,7.9
2018-10-06T01:58:26.652Z,7.9
2018-10-06T01:58:38.836Z,7.9
2018-10-06T01:58:50.994Z,7.9
2018-10-06T01:59:03.165Z,7.9
2018-10-06T01:59:15.352Z,7.9
2018-10-06T01:59:27.531Z,7.9
2018-10-06T01:59:40.062Z,7.9
2018-10-06T01:59:52.550Z,7.9
2018-10-06T02:00:04.697Z,7.9
2018-10-06T02:00:16.951Z,7.9
2018-10-06T02:00:29.255Z,7.9
2018-10-06T02:00:41.421Z,7.9
2018-10-06T02:00:53.579Z,7.9
2018-10-06T02:01:05.757Z,7.9
2018-10-06T02:01:17.914Z,7.9
2018-10-06T02:01:30.273Z,7.9
2018-10-06T02:01:42.465Z,7.9
2018-10-06T02:01:54.653Z,7.9
2018-10-06T02:02:06.842Z,7.9
2018-10-06T02:02:19.002Z,7.9
2018-10-06T02:02:31.166Z,7.9
2018-10-06T02:02:43.330Z,7.9
2018-10-06T02:02:55.558Z,7.9
2018-10-06T02:03:07.755Z,7.9
2018-10-06T02:03:20.116Z,7.9
2018-10-06T02:03:32.337Z,7.9
2018-10-06T02:03:44.540Z,7.9
2018-10-06T02:03:56.838Z,7.9
2018-10-06T02:04:09.020Z,8.7
2018-10-06T02:04:21.194Z,8.7
2018-10-06T02:04:33.380Z,8.7
2018-10-06T02:04:45.556Z,8.7
2018-10-06T02:04:57.932Z,8.7
2018-10-06T02:05:10.105Z,8.7
2018-10-06T02:05:22.276Z,8.7
2018-10-06T02:05:34.450Z,8.7
2018-10-06T02:05:46.617Z,8.7
2018-10-06T02:05:58.791Z,8.7
2018-10-06T02:06:10.955Z,8.7
2018-10-06T02:06:23.123Z,8.7
2018-10-06T02:06:35.286Z,8.7
2018-10-06T02:06:47.465Z,8.7
2018-10-06T02:06:59.640Z,8.7
2018-10-06T02:07:11.816Z,8.7
2018-10-06T02:07:23.979Z,8.7
2018-10-06T02:07:36.136Z,8.7
2018-10-06T02:07:48.306Z,8.7
2018-10-06T02:08:00.469Z,8.7
2018-10-06T02:08:12.628Z,8.7
2018-10-06T02:08:24.917Z,8.7
2018-10-06T02:08:37.066Z,8.7
2018-10-06T02:08:49.242Z,8.7
2018-10-06T02:09:01.427Z,8.7
2018-10-06T02:09:13.614Z,8.7
2018-10-06T02:09:25.774Z,8.7
2018-10-06T02:09:37.950Z,8.7
2018-10-06T02:09:50.120Z,8.7
2018-10-06T02:10:02.487Z,8.7
2018-10-06T02:10:14.789Z,8.7
2018-10-06T02:10:26.962Z,8.7
2018-10-06T02:10:39.113Z,8.7
2018-10-06T02:10:51.254Z,8.7
2018-10-06T02:11:03.427Z,8.7
2018-10-06T02:11:15.582Z,8.7
2018-10-06T02:11:27.764Z,8.7
2018-10-06T02:11:39.915Z,8.7
2018-10-06T02:11:52.081Z,8.7
2018-10-06T02:12:04.276Z,8.7
2018-10-06T02:12:16.602Z,8.7
2018-10-06T02:12:28.818Z,8.7
2018-10-06T02:12:41.149Z,8.7
2018-10-06T02:12:53.329Z,8.7
2018-10-06T02:13:05.493Z,8.7
2018-10-06T02:13:17.658Z,8.7
2018-10-06T02:13:29.817Z,8.7
2018-10-06T02:13:41.971Z,8.7
2018-10-06T02:13:54.124Z,8.7
2018-10-06T02:14:06.335Z,8.77
2018-10-06T02:14:18.517Z,8.77
2018-10-06T02:14:30.695Z,8.77
2018-10-06T02:14:43.000Z,8.77
2018-10-06T02:14:55.210Z,8.77
2018-10-06T02:15:07.394Z,8.77
2018-10-06T02:15:19.561Z,8.77
2018-10-06T02:15:31.729Z,8.77
2018-10-06T02:15:43.970Z,8.77
2018-10-06T02:15:56.129Z,8.77
2018-10-06T02:16:08.289Z,8.77
2018-10-06T02:16:20.492Z,8.77
2018-10-06T02:16:32.657Z,8.77
2018-10-06T02:16:44.836Z,8.77
2018-10-06T02:16:57.013Z,8.77
2018-10-06T02:17:09.359Z,8.77
2018-10-06T02:17:21.514Z,8.77
2018-10-06T02:17:33.682Z,8.77
2018-10-06T02:17:45.855Z,8.77
2018-10-06T02:17:58.024Z,8.77
2018-10-06T02:18:10.178Z,8.77
2018-10-06T02:18:22.342Z,8.77
2018-10-06T02:18:34.509Z,8.77
2018-10-06T02:18:46.671Z,8.77
2018-10-06T02:18:58.840Z,8.77
2018-10-06T02:19:11.068Z,8.77
2018-10-06T02:19:23.238Z,8.77
2018-10-06T02:19:35.788Z,8.77
2018-10-06T02:19:47.962Z,8.77
2018-10-06T02:20:00.344Z,8.77
2018-10-06T02:20:12.535Z,8.77
2018-10-06T02:20:24.693Z,8.77
2018-10-06T02:20:36.918Z,8.77
2018-10-06T02:20:49.089Z,8.77
2018-10-06T02:21:01.259Z,8.77
2018-10-06T02:21:13.417Z,8.77
2018-10-06T02:21:25.619Z,8.77
2018-10-06T02:21:37.836Z,8.77
2018-10-06T02:21:49.996Z,8.77
2018-10-06T02:22:02.174Z,8.77
2018-10-06T02:22:14.337Z,8.77
2018-10-06T02:22:26.514Z,8.77
2018-10-06T02:22:38.672Z,8.77
2018-10-06T02:22:50.829Z,8.77
2018-10-06T02:23:02.983Z,8.77
2018-10-06T02:23:15.144Z,8.77
2018-10-06T02:23:27.304Z,8.77
2018-10-06T02:23:39.499Z,8.77
2018-10-06T02:23:51.649Z,8.77
2018-10-06T02:24:04.171Z,8.77
2018-10-06T02:24:16.365Z,8.87
2018-10-06T02:24:28.526Z,8.87
2018-10-06T02:24:40.733Z,8.87
2018-10-06T02:24:52.905Z,8.87
2018-10-06T02:25:05.129Z,8.87
2018-10-06T02:25:17.296Z,8.87
2018-10-06T02:25:29.464Z,8.87
2018-10-06T02:25:41.634Z,8.87
2018-10-06T02:25:53.780Z,8.87
2018-10-06T02:26:05.933Z,8.87
2018-10-06T02:26:18.102Z,8.87
2018-10-06T02:26:30.273Z,8.87
2018-10-06T02:26:42.418Z,8.87
2018-10-06T02:26:54.576Z,8.87
2018-10-06T02:27:06.807Z,8.87
2018-10-06T02:27:18.967Z,8.87
2018-10-06T02:27:31.134Z,8.87
2018-10-06T02:27:43.300Z,8.87
2018-10-06T02:27:55.462Z,8.87
2018-10-06T02:28:07.684Z,8.87
2018-10-06T02:28:19.851Z,8.87
2018-10-06T02:28:32.034Z,8.87
2018-10-06T02:28:44.189Z,8.87
2018-10-06T02:28:56.340Z,8.87
2018-10-06T02:29:08.500Z,8.87
2018-10-06T02:29:20.668Z,8.87
2018-10-06T02:29:32.814Z,8.87
2018-10-06T02:29:45.450Z,8.87
2018-10-06T02:29:58.047Z,8.87
2018-10-06T02:30:11.839Z,8.87
2018-10-06T02:30:25.015Z,8.87
2018-10-06T02:30:37.551Z,8.87
2018-10-06T02:30:49.751Z,8.87
2018-10-06T02:31:01.935Z,8.87
2018-10-06T02:31:14.113Z,8.87
2018-10-06T02:31:26.313Z,8.87
2018-10-06T02:31:38.486Z,8.87
2018-10-06T02:31:50.660Z,8.87
2018-10-06T02:32:02.856Z,8.87
2018-10-06T02:32:15.050Z,8.87
2018-10-06T02:32:27.254Z,8.87
2018-10-06T02:32:39.479Z,8.87
2018-10-06T02:32:51.945Z,8.87
2018-10-06T02:33:04.257Z,8.87
2018-10-06T02:33:16.460Z,8.87
2018-10-06T02:33:28.636Z,8.87
2018-10-06T02:33:40.802Z,8.87
2018-10-06T02:33:53.003Z,8.87
2018-10-06T02:34:05.191Z,8.87
2018-10-06T02:34:17.346Z,8.75
2018-10-06T02:34:29.531Z,8.75
2018-10-06T02:34:41.764Z,8.75
2018-10-06T02:34:53.913Z,8.75
2018-10-06T02:35:06.109Z,8.75
2018-10-06T02:35:18.283Z,8.75
2018-10-06T02:35:30.844Z,8.75
2018-10-06T02:35:43.011Z,8.75
2018-10-06T02:35:55.179Z,8.75
2018-10-06T02:36:07.346Z,8.75
2018-10-06T02:36:19.496Z,8.75
2018-10-06T02:36:31.664Z,8.75
2018-10-06T02:36:44.243Z,8.75
2018-10-06T02:36:57.456Z,8.75
2018-10-06T02:37:09.930Z,8.75
2018-10-06T02:37:22.107Z,8.75
2018-10-06T02:37:34.268Z,8.75
2018-10-06T02:37:46.439Z,8.75
2018-10-06T02:37:58.594Z,8.75
2018-10-06T02:38:10.803Z,8.75
2018-10-06T02:38:22.988Z,8.75
2018-10-06T02:38:35.180Z,8.75
2018-10-06T02:38:47.329Z,8.75
2018-10-06T02:38:59.480Z,8.75
2018-10-06T02:39:11.649Z,8.75
2018-10-06T02:39:23.805Z,8.75
2018-10-06T02:39:35.972Z,8.75
2018-10-06T02:39:48.325Z,8.75
2018-10-06T02:40:00.503Z,8.75
2018-10-06T02:40:12.699Z,8.75
2018-10-06T02:40:24.880Z,8.75
2018-10-06T02:40:37.038Z,8.75
2018-10-06T02:40:49.215Z,8.75
2018-10-06T02:41:01.382Z,8.75
2018-10-06T02:41:13.570Z,8.75
2018-10-06T02:41:25.705Z,8.75
2018-10-06T02:41:37.912Z,8.75
2018-10-06T02:41:50.072Z,8.75
2018-10-06T02:42:02.245Z,8.75
2018-10-06T02:42:14.398Z,8.75
2018-10-06T02:42:26.558Z,8.75
2018-10-06T02:42:38.731Z,8.75
2018-10-06T02:42:50.911Z,8.75
2018-10-06T02:43:03.097Z,8.75
2018-10-06T02:43:15.275Z,8.75
2018-10-06T02:43:27.455Z,8.75